الصفحة الرئيسية
METAR-TAF:

METAR-TAF

مطار :

مطار تشيانغ ري الدولي

Chiang Rai, تايلاند

دائرة عرض: 19-57-08N, خط طول: 099-52-59E, ارتفاع: 390 متر

مراقبة الطقس الحالي

تاريخ ووقت الإصدار 1ساعة و 5 دقيقة قبل الساعة 21:00UTC
ريح 2 عقدة من الغرب/الجنوب الغربي
درجة الحرارة 25°درجة مئوية
الرطوبة 83%
ضغط 1009 hPa
الرؤية 10 كم أو أكثر
الغيوم لا تقل 1500 م ولا وجود لمزنة ركامية السحاب الأسود

METAR: VTCT 252100Z 25002KT CAVOK 25/22 Q1009 NOSIG

زمن: 05:05 (22:05 UTC)

توقعات

تاريخ ووقت الإصدار 5ساعات و 5 دقيقة قبل الساعة 17:00UTC
التوقعات صالحة من25 الساعة 18 UTC إلى 26 الساعة 24 UTC
ريح 5 عقدة من الجنوب/الجنوب الغربي
الرؤية 10 كم أو أكثر
غيوم قليلة على ارتفاع 3000 قدم

TAF: VTCT 251700Z 2518/2624 21005KT 9999 FEW030

أرصاد الطقس والتوقعات من أكثر من 4000 مطار (تقارير الطقس للمطار METAR والتنبؤ بالطقس بالمطارTAF).

المحطات المتاحة هي النقط الصفراء والحمراء على الخريطة.

حرك المؤشر فوق النقطة لمعرفة اسم المحطة.

ثم انقر لمعرفة أرصاد وتوقعات الطقس.

لتغيير الخارطة: اضغط على الأزرار الخضراء مع رمز الصليب الأسود للتكبير. على الزر الأخضر مع شرطة للتصغير، أو على الأسهم الخضراء للخرائط المجاورة.


METAR-TAF: